National Weather Service United States Department of Commerce
Click Here for Latest Airport Weather Warnings
 
Latest Huntsville TAF


000
FTUS44 KHUN 150520
TAFHSV
TAF
KHSV 150520Z 1506/1606 01007KT P6SM SCT120 BKN250
FM150900 35005KT P6SM BKN120
FM151500 32008KT P6SM BKN050
FM152100 31007KT P6SM SCT050
FM160000 VRB04KT P6SM SCT250=

Latest Muscle Shoals TAF


000
FTUS44 KHUN 150520
TAFMSL
TAF
KMSL 150520Z 1506/1606 02005KT P6SM SCT120 BKN250
FM150900 VRB04KT P6SM BKN120
FM151400 32007KT P6SM BKN070
FM152000 31005KT P6SM SCT070
FM160000 VRB03KT P6SM SCT250=

 

Back to Main Huntsville Weather Forecast Office Page